Time;durP1;ratioP1;P1;durP2;ratioP2;P2;SDS_P1;SDS_P2;PMS_P1;PMS_P2;Temp;Humidity;BMP_temperature;BMP_pressure;BME280_temperature;BME280_humidity;BME280_pressure;Samples;Min_cycle;Max_cycle;Signal;HPM_P1;HPM_P2
2023/07/22 00:01:59;;;;;;;6.23;5.73;;;;;;;27.55;47.03;95000.78;6114549;28;109323;-75
2023/07/22 00:05:03;;;;;;;5.90;5.40;;;;;;;27.53;47.67;95011.88;6113714;28;109136;-75
2023/07/22 00:08:07;;;;;;;6.10;5.60;;;;;;;27.55;47.87;95022.28;6103854;28;109308;-76
2023/07/22 00:11:11;;;;;;;6.33;5.80;;;;;;;27.55;47.55;95024.97;6114507;28;110275;-76
2023/07/22 00:14:14;;;;;;;6.37;5.77;;;;;;;27.57;48.06;95020.06;6117750;28;109285;-77
2023/07/22 00:17:17;;;;;;;6.63;6.03;;;;;;;27.58;47.65;95025.09;6109566;28;109263;-77
2023/07/22 00:20:21;;;;;;;5.63;5.13;;;;;;;27.58;48.22;95029.69;6108966;28;109208;-76
2023/07/22 00:23:24;;;;;;;6.57;5.90;;;;;;;27.59;48.02;95033.97;6115863;28;109265;-76
2023/07/22 00:26:28;;;;;;;6.40;5.80;;;;;;;27.59;48.30;95036.63;6115823;28;109234;-76
2023/07/22 00:29:32;;;;;;;5.23;4.83;;;;;;;27.58;47.69;95035.09;6103682;28;109067;-75
2023/07/22 00:32:36;;;;;;;5.70;5.20;;;;;;;27.59;48.17;95037.41;6121647;28;109255;-75
2023/07/22 00:35:40;;;;;;;6.30;5.27;;;;;;;27.59;48.30;95047.41;6114461;28;109086;-62
2023/07/22 00:38:43;;;;;;;6.40;5.80;;;;;;;27.60;48.38;95035.50;6113877;28;109699;-63
2023/07/22 00:41:47;;;;;;;5.50;5.10;;;;;;;27.61;48.43;95042.47;6103764;28;109961;-63
2023/07/22 00:44:50;;;;;;;5.90;5.30;;;;;;;27.61;48.52;95034.38;6113837;28;110124;-62
2023/07/22 00:47:54;;;;;;;5.23;4.83;;;;;;;27.61;48.09;95034.38;6113702;28;109232;-62
2023/07/22 00:50:57;;;;;;;5.83;5.10;;;;;;;27.62;48.17;95033.25;6114832;28;109069;-66
2023/07/22 00:54:01;;;;;;;6.87;5.27;;;;;;;27.61;48.41;95042.47;6106285;28;108945;-63
2023/07/22 00:57:05;;;;;;;5.33;4.93;;;;;;;27.63;48.51;95043.69;6120196;28;110142;-63
2023/07/22 01:00:11;;;;;;;5.17;4.77;;;;;;;27.63;48.44;95049.06;6116102;28;109091;-63
2023/07/22 01:03:15;;;;;;;5.73;5.23;;;;;;;27.64;48.27;95052.53;6108552;28;110419;-63
2023/07/22 01:06:19;;;;;;;5.70;5.20;;;;;;;27.63;48.03;95045.59;6088492;28;109077;-62
2023/07/22 01:09:22;;;;;;;5.53;5.03;;;;;;;27.62;47.93;95041.34;6093912;28;109133;-63
2023/07/22 01:12:27;;;;;;;5.80;5.30;;;;;;;27.64;48.51;95033.69;6116046;28;108870;-63
2023/07/22 01:15:30;;;;;;;5.63;5.17;;;;;;;27.63;48.71;95038.28;6103136;28;109112;-62
2023/07/22 01:18:34;;;;;;;6.10;5.60;;;;;;;27.64;48.56;95025.63;6113183;28;110306;-62
2023/07/22 01:21:38;;;;;;;5.03;4.63;;;;;;;27.64;48.11;95031.00;6113002;28;109126;-65
2023/07/22 01:24:42;;;;;;;5.50;5.00;;;;;;;27.64;48.39;95018.34;6113440;28;109356;-63
2023/07/22 01:27:46;;;;;;;5.40;4.90;;;;;;;27.64;48.35;95023.72;6101120;28;109249;-62
2023/07/22 01:30:49;;;;;;;6.07;4.93;;;;;;;27.65;48.48;95029.88;6112779;28;109144;-62
2023/07/22 01:33:52;;;;;;;5.43;5.03;;;;;;;27.64;48.58;95028.31;6112934;28;109279;-62
2023/07/22 01:36:55;;;;;;;5.43;4.93;;;;;;;27.64;48.46;95012.97;6106453;28;109241;-62
2023/07/22 01:40:00;;;;;;;5.20;4.80;;;;;;;27.65;48.04;95008.38;6107166;28;109302;-62
2023/07/22 01:43:03;;;;;;;5.40;4.90;;;;;;;27.67;48.67;95014.19;6127858;28;109126;-63
2023/07/22 01:46:06;;;;;;;5.33;4.93;;;;;;;27.67;48.04;95006.91;6136380;28;109551;-75
2023/07/22 01:49:12;;;;;;;5.07;4.67;;;;;;;27.68;48.29;95021.13;6121756;28;109203;-75
2023/07/22 01:52:15;;;;;;;4.90;4.50;;;;;;;27.67;47.85;95009.59;6116399;28;109360;-75
2023/07/22 01:55:20;;;;;;;4.87;4.57;;;;;;;27.67;48.30;95009.59;6113082;28;110190;-75
2023/07/22 01:58:23;;;;;;;5.30;4.80;;;;;;;27.68;48.08;95005.00;6112055;28;109330;-77
2023/07/22 02:01:27;;;;;;;5.17;4.70;;;;;;;27.68;47.97;95002.31;6102636;28;110680;-75
2023/07/22 02:04:31;;;;;;;5.10;4.70;;;;;;;27.70;48.70;95000.84;6112115;28;109280;-77
2023/07/22 02:07:34;;;;;;;5.00;4.60;;;;;;;27.70;48.51;95005.44;6111930;28;108852;-76
2023/07/22 02:10:40;;;;;;;4.90;4.50;;;;;;;27.69;48.51;94995.81;6107327;28;109123;-76
2023/07/22 02:13:43;;;;;;;5.03;4.63;;;;;;;27.69;48.63;94999.28;6127147;28;109132;-76
2023/07/22 02:16:46;;;;;;;5.20;4.80;;;;;;;27.69;48.66;95003.88;6135581;28;109140;-76
2023/07/22 02:19:50;;;;;;;6.03;4.63;;;;;;;27.70;48.23;95011.59;6116792;28;109062;-75
2023/07/22 02:22:53;;;;;;;4.97;4.57;;;;;;;27.72;48.51;95013.94;6114129;28;109481;-74
2023/07/22 02:25:57;;;;;;;5.10;4.70;;;;;;;27.71;48.57;95007.00;6127231;28;109360;-74
2023/07/22 02:29:00;;;;;;;4.60;4.20;;;;;;;27.71;48.94;95004.31;6119714;28;108862;-74
2023/07/22 02:32:04;;;;;;;4.90;4.50;;;;;;;27.71;48.58;95005.09;6124370;28;109581;-75
2023/07/22 02:35:08;;;;;;;5.20;4.80;;;;;;;27.71;48.92;95017.75;6104762;28;109258;-75
2023/07/22 02:38:12;;;;;;;4.90;4.50;;;;;;;27.71;48.51;95015.84;6114100;28;110111;-76
2023/07/22 02:41:16;;;;;;;4.93;4.53;;;;;;;27.70;48.58;95016.97;6129129;28;110262;-75
2023/07/22 02:44:19;;;;;;;5.03;4.57;;;;;;;27.70;48.45;95021.56;6138673;28;110292;-75
2023/07/22 02:47:22;;;;;;;5.10;4.70;;;;;;;27.70;48.62;95016.97;6123979;28;110140;-75
2023/07/22 02:50:26;;;;;;;5.17;4.77;;;;;;;27.68;48.97;95005.78;6114816;28;110180;-76
2023/07/22 02:53:29;;;;;;;5.17;4.77;;;;;;;27.69;48.38;95011.94;6127016;28;109062;-76
2023/07/22 02:56:33;;;;;;;4.53;4.23;;;;;;;27.70;48.95;95019.66;6132107;28;111577;-67
2023/07/22 02:59:37;;;;;;;4.70;4.40;;;;;;;27.69;48.52;95015.41;6113962;28;109128;-75
2023/07/22 03:02:41;;;;;;;5.10;4.70;;;;;;;27.71;48.47;95017.75;6114873;28;109440;-75
2023/07/22 03:05:44;;;;;;;4.97;4.57;;;;;;;27.74;48.54;95019.78;6126518;28;109083;-76
2023/07/22 03:08:48;;;;;;;4.37;4.03;;;;;;;27.71;48.22;95023.91;6110638;28;110054;-77
2023/07/22 03:11:52;;;;;;;4.70;4.20;;;;;;;27.73;48.92;95028.97;6114773;28;110084;-75
2023/07/22 03:14:56;;;;;;;4.20;3.90;;;;;;;27.73;48.85;95020.91;6119848;28;109303;-75
2023/07/22 03:17:59;;;;;;;4.53;4.13;;;;;;;27.72;48.35;95020.13;6114710;28;109275;-74
2023/07/22 03:21:02;;;;;;;4.33;4.00;;;;;;;27.74;48.77;95030.53;6103570;28;109059;-74
2023/07/22 03:24:05;;;;;;;5.00;4.60;;;;;;;27.74;48.97;95022.47;6113980;28;110022;-74
2023/07/22 03:27:10;;;;;;;4.37;4.07;;;;;;;27.73;48.81;95026.28;6090571;28;1250873;-74
2023/07/22 03:30:15;;;;;;;4.90;4.50;;;;;;;27.72;48.73;95017.44;6111410;28;109164;-74
2023/07/22 03:33:18;;;;;;;4.80;4.40;;;;;;;27.74;48.42;95030.53;6107859;28;109415;-74
2023/07/22 03:36:22;;;;;;;4.60;4.30;;;;;;;27.73;48.84;95027.06;6114861;28;109207;-76
2023/07/22 03:39:25;;;;;;;4.40;4.10;;;;;;;27.75;48.96;95026.72;6114146;28;109333;-75
2023/07/22 03:42:29;;;;;;;4.43;4.03;;;;;;;27.73;48.59;95029.75;6104485;28;109331;-73
2023/07/22 03:45:32;;;;;;;4.80;4.40;;;;;;;27.75;48.58;95046.34;6124452;28;109178;-76
2023/07/22 03:48:35;;;;;;;4.93;4.53;;;;;;;27.74;48.77;95044.78;6135803;28;109624;-75
2023/07/22 03:51:38;;;;;;;4.40;4.00;;;;;;;27.75;48.60;95056.31;6114175;28;109273;-75
2023/07/22 03:54:41;;;;;;;4.50;4.13;;;;;;;27.75;49.05;95064.38;6104396;28;109163;-76
2023/07/22 03:57:46;;;;;;;4.90;4.50;;;;;;;27.76;48.47;95063.25;6123706;28;110059;-75
2023/07/22 04:00:50;;;;;;;4.63;4.23;;;;;;;27.73;48.88;95064.72;6115256;28;109150;-75
2023/07/22 04:03:53;;;;;;;5.57;5.00;;;;;;;27.77;48.98;95078.25;6114695;28;108873;-69
2023/07/22 04:06:56;;;;;;;8.37;7.53;;;;;;;27.79;47.54;95073.31;6104789;28;109899;-69
2023/07/22 04:09:59;;;;;;;11.90;8.40;;;;;;;27.71;47.19;95079.59;6113386;28;109131;-64
2023/07/22 04:13:04;;;;;;;35.73;32.27;;;;;;;27.56;47.49;95074.97;6114591;28;110089;-69
2023/07/22 04:16:07;;;;;;;15.27;13.77;;;;;;;27.42;48.23;95076.09;6120242;28;110967;-64
2023/07/22 04:19:10;;;;;;;15.77;13.67;;;;;;;27.35;48.05;95075.88;6130534;28;109238;-64
2023/07/22 04:22:13;;;;;;;11.33;10.23;;;;;;;27.02;49.05;95073.31;6113756;28;109154;-64
2023/07/22 04:25:16;;;;;;;20.00;18.03;;;;;;;27.20;48.49;95079.22;6114295;28;109288;-64
2023/07/22 04:28:21;;;;;;;14.47;11.23;;;;;;;26.85;49.42;95066.25;6103145;28;110201;-65
2023/07/22 04:31:25;;;;;;;16.90;15.23;;;;;;;27.01;48.97;95079.03;6114302;28;109371;-65
2023/07/22 04:34:30;;;;;;;21.20;14.57;;;;;;;26.99;49.38;95079.34;6113856;28;109321;-65
2023/07/22 04:37:33;;;;;;;10.80;9.83;;;;;;;26.83;49.48;95090.00;6119636;28;110174;-65
2023/07/22 04:40:36;;;;;;;11.97;8.60;;;;;;;26.73;49.80;95092.34;6105824;28;108835;-65
2023/07/22 04:43:41;;;;;;;12.33;11.03;;;;;;;26.95;48.88;95096.50;6113839;28;109214;-65
2023/07/22 04:46:44;;;;;;;13.27;10.73;;;;;;;27.18;49.24;95086.84;6113751;28;109225;-65
2023/07/22 04:49:47;;;;;;;12.27;11.00;;;;;;;27.28;48.35;95094.50;6108568;28;110195;-65
2023/07/22 04:52:50;;;;;;;16.67;14.93;;;;;;;27.30;48.16;95089.56;6110893;28;110471;-65
2023/07/22 04:55:55;;;;;;;13.70;12.33;;;;;;;27.34;47.91;95093.13;6131103;28;110297;-65
2023/07/22 04:58:59;;;;;;;12.80;9.43;;;;;;;27.38;47.87;95079.78;6121917;28;109056;-65
2023/07/22 05:02:02;;;;;;;11.50;9.40;;;;;;;27.40;47.42;95082.94;6107756;28;109362;-65
2023/07/22 05:05:06;;;;;;;13.07;10.30;;;;;;;27.43;47.91;95093.03;6116406;28;108957;-65
2023/07/22 05:08:09;;;;;;;10.10;9.00;;;;;;;27.48;47.12;95090.09;6119858;28;110210;-65
2023/07/22 05:11:12;;;;;;;10.27;8.23;;;;;;;27.45;47.80;95094.25;6118686;28;109173;-65
2023/07/22 05:14:17;;;;;;;13.13;8.90;;;;;;;27.43;47.81;95104.56;6102797;28;109223;-65
2023/07/22 05:17:20;;;;;;;14.70;9.13;;;;;;;27.48;47.09;95103.53;6135715;28;109156;-64
2023/07/22 05:20:23;;;;;;;11.40;8.00;;;;;;;27.53;47.57;95111.34;6137266;28;109109;-64
2023/07/22 05:23:26;;;;;;;13.73;9.40;;;;;;;27.55;47.41;95119.06;6137350;28;109319;-64
2023/07/22 05:26:30;;;;;;;15.17;9.60;;;;;;;27.57;46.96;95114.16;6127254;28;109168;-64
2023/07/22 05:29:35;;;;;;;15.13;9.33;;;;;;;27.58;47.46;95107.66;6125624;28;109257;-65
2023/07/22 05:32:38;;;;;;;14.30;9.50;;;;;;;27.60;47.26;95110.78;6113086;28;109452;-64
2023/07/22 05:35:41;;;;;;;9.77;8.63;;;;;;;27.61;47.18;95113.16;6103037;28;109582;-65
2023/07/22 05:38:44;;;;;;;12.37;9.70;;;;;;;27.55;47.12;95105.63;6112478;28;109131;-65
2023/07/22 05:41:47;;;;;;;10.10;9.13;;;;;;;27.45;47.05;95113.06;6112100;28;108836;-65
2023/07/22 05:44:52;;;;;;;11.17;9.70;;;;;;;27.45;47.09;95110.38;6113137;28;109295;-64
2023/07/22 05:47:55;;;;;;;11.30;9.40;;;;;;;27.57;46.68;95112.25;6102568;28;110397;-68
2023/07/22 05:50:58;;;;;;;12.90;9.23;;;;;;;27.65;46.20;95111.34;6112785;28;109862;-64
2023/07/22 05:54:01;;;;;;;12.30;9.20;;;;;;;27.76;46.60;95117.03;6112872;28;109850;-64
2023/07/22 05:57:04;;;;;;;17.63;9.43;;;;;;;27.82;47.45;95115.66;6113101;28;110206;-60
2023/07/22 06:00:12;;;;;;;14.50;9.90;;;;;;;27.89;47.54;95115.09;6102619;28;109083;-60
2023/07/22 06:03:16;;;;;;;13.43;9.10;;;;;;;27.95;47.51;95108.38;6113287;28;110306;-61
2023/07/22 06:06:20;;;;;;;12.70;9.03;;;;;;;27.98;47.92;95113.06;6112817;28;109594;-62
2023/07/22 06:09:26;;;;;;;17.50;9.87;;;;;;;28.03;48.00;95118.19;6106755;28;109303;-61
2023/07/22 06:12:29;;;;;;;12.63;10.07;;;;;;;28.07;47.19;95123.69;6108070;28;108859;-65
2023/07/22 06:15:33;;;;;;;10.63;9.50;;;;;;;27.90;46.75;95136.31;6119353;28;109443;-64
2023/07/22 06:18:36;;;;;;;11.00;9.03;;;;;;;27.88;46.85;95140.44;6112294;28;109413;-61
2023/07/22 06:21:39;;;;;;;10.30;9.20;;;;;;;27.43;47.66;95139.50;6102095;28;109364;-60
2023/07/22 06:24:43;;;;;;;13.33;9.97;;;;;;;26.77;45.95;95153.09;6114965;28;109104;-60
2023/07/22 06:27:46;;;;;;;13.43;9.53;;;;;;;26.39;46.10;95153.31;6121771;28;109122;-60
2023/07/22 06:30:50;;;;;;;18.60;9.80;;;;;;;26.22;45.91;95164.97;6117356;28;109137;-61
2023/07/22 06:33:53;;;;;;;14.33;9.63;;;;;;;26.03;44.96;95161.19;6111271;28;109201;-60
2023/07/22 06:36:56;;;;;;;12.83;9.93;;;;;;;25.63;43.91;95157.03;6111916;28;109174;-61
2023/07/22 06:40:00;;;;;;;13.10;9.63;;;;;;;25.39;43.36;95156.88;6135116;28;109941;-63
2023/07/22 06:43:03;;;;;;;17.30;9.23;;;;;;;25.24;43.21;95163.53;6110707;28;109176;-64
2023/07/22 06:46:07;;;;;;;13.90;9.43;;;;;;;25.22;42.28;95164.97;6116824;28;109773;-65
2023/07/22 06:49:10;;;;;;;18.67;9.43;;;;;;;25.05;41.59;95155.91;6128275;28;109195;-65
2023/07/22 06:52:14;;;;;;;17.00;9.93;;;;;;;25.09;40.63;95164.88;6125557;28;109353;-64
2023/07/22 06:55:17;;;;;;;11.07;8.83;;;;;;;25.09;40.83;95164.06;6109183;28;110976;-64
2023/07/22 06:58:20;;;;;;;15.63;9.47;;;;;;;25.02;40.68;95155.75;6124547;28;109425;-65
2023/07/22 07:01:25;;;;;;;10.90;9.10;;;;;;;25.13;40.44;95156.97;6117259;28;109808;-64
2023/07/22 07:04:28;;;;;;;16.23;9.03;;;;;;;24.77;39.70;95152.84;6099043;28;109060;-66
2023/07/22 07:07:32;;;;;;;11.03;8.83;;;;;;;25.00;39.04;95141.91;6103606;28;109968;-65
2023/07/22 07:10:38;;;;;;;10.77;8.80;;;;;;;25.10;39.09;95146.91;6124049;28;109633;-65
2023/07/22 07:13:41;;;;;;;21.20;9.77;;;;;;;25.16;39.34;95150.97;6132429;28;109292;-65
2023/07/22 07:16:45;;;;;;;14.53;10.37;;;;;;;25.08;39.58;95141.09;6127419;28;109302;-64
2023/07/22 07:19:49;;;;;;;14.13;8.70;;;;;;;24.97;38.99;95143.31;6114740;28;109632;-64
2023/07/22 07:22:52;;;;;;;13.37;8.90;;;;;;;24.84;39.58;95130.94;6138489;28;109153;-68
2023/07/22 07:25:55;;;;;;;12.47;8.80;;;;;;;24.78;39.73;95134.91;6123583;28;109858;-63
2023/07/22 07:28:59;;;;;;;13.53;9.47;;;;;;;24.79;39.40;95129.22;6117884;28;109289;-64
2023/07/22 07:32:04;;;;;;;13.20;9.63;;;;;;;24.87;38.66;95124.97;6120770;28;109259;-66
2023/07/22 07:35:15;;;;;;;11.60;8.70;;;;;;;24.89;38.72;95125.41;6125884;28;108889;-61
2023/07/22 07:38:18;;;;;;;14.40;8.77;;;;;;;24.89;39.14;95125.41;6123037;28;109286;-62
2023/07/22 07:41:22;;;;;;;11.93;9.30;;;;;;;24.76;38.89;95116.50;6110835;28;110124;-61
2023/07/22 07:44:25;;;;;;;14.80;9.03;;;;;;;24.70;39.18;95115.09;6114767;28;109278;-58
2023/07/22 07:47:30;;;;;;;12.00;8.90;;;;;;;24.71;39.35;95113.22;6118461;28;110166;-61
2023/07/22 07:50:33;;;;;;;12.70;9.33;;;;;;;24.61;39.10;95108.94;6133489;28;108985;-61
2023/07/22 07:53:37;;;;;;;16.13;10.07;;;;;;;24.66;38.90;95121.38;6114006;28;109350;-61
2023/07/22 07:56:40;;;;;;;10.57;9.43;;;;;;;24.65;38.39;95119.81;6138989;28;109137;-61
2023/07/22 07:59:44;;;;;;;11.53;8.97;;;;;;;24.94;38.97;95111.06;6127840;28;109767;-63
2023/07/22 08:02:48;;;;;;;14.83;9.37;;;;;;;25.33;39.30;95115.25;6122190;28;109224;-61
2023/07/22 08:05:51;;;;;;;13.17;9.53;;;;;;;25.46;40.23;95106.22;6106010;28;109704;-61
2023/07/22 08:08:55;;;;;;;14.20;9.80;;;;;;;25.53;40.99;95106.47;6115861;28;109059;-60
2023/07/22 08:11:58;;;;;;;12.00;9.13;;;;;;;25.56;40.66;95099.72;6119746;28;108896;-63
2023/07/22 08:15:01;;;;;;;12.37;8.63;;;;;;;25.57;40.69;95112.00;6096441;28;109129;-63
2023/07/22 08:18:06;;;;;;;20.13;9.50;;;;;;;25.69;41.40;95104.78;6125574;28;109191;-62
2023/07/22 08:21:09;;;;;;;22.07;9.57;;;;;;;25.65;41.77;95108.47;6117259;28;110415;-62
2023/07/22 08:24:15;;;;;;;13.13;8.73;;;;;;;25.53;42.14;95097.66;6109953;28;109197;-62
2023/07/22 08:27:18;;;;;;;14.20;9.10;;;;;;;25.57;41.72;95096.69;6104987;28;109240;-62
2023/07/22 08:30:21;;;;;;;13.17;9.63;;;;;;;25.26;41.74;95099.72;6115541;28;109180;-63
2023/07/22 08:33:26;;;;;;;12.43;10.10;;;;;;;25.02;42.26;95099.50;6112835;28;109458;-62
2023/07/22 08:36:44;;;;;;;16.67;10.20;;;;;;;24.72;41.61;95094.16;6110080;28;109162;-63
2023/07/22 08:39:47;;;;;;;11.53;10.33;;;;;;;24.49;42.48;95103.47;6109078;28;109584;-62
2023/07/22 08:42:51;;;;;;;16.43;10.80;;;;;;;24.56;42.44;95097.66;6077948;28;109188;-62
2023/07/22 08:45:56;;;;;;;13.97;11.03;;;;;;;24.65;41.92;95088.47;6100001;28;109165;-68
2023/07/22 08:49:01;;;;;;;14.60;10.70;;;;;;;24.58;41.90;95082.06;6103107;28;110264;-66
2023/07/22 08:52:05;;;;;;;12.87;11.20;;;;;;;24.61;42.12;95074.16;6111000;28;109329;-66
2023/07/22 08:55:10;;;;;;;12.07;10.83;;;;;;;24.45;41.37;95060.53;6109895;28;110290;-68
2023/07/22 08:58:14;;;;;;;12.23;11.00;;;;;;;24.43;40.88;95060.06;6113456;28;109260;-66
2023/07/22 09:01:17;;;;;;;13.73;11.50;;;;;;;24.36;40.90;95043.75;6104061;28;109583;-67
2023/07/22 09:04:23;;;;;;;14.90;12.30;;;;;;;24.27;40.81;95045.66;6115573;28;109107;-67
2023/07/22 09:07:27;;;;;;;13.50;12.20;;;;;;;24.27;40.99;95044.88;6124388;28;109117;-66
2023/07/22 09:10:31;;;;;;;14.17;12.67;;;;;;;24.25;41.63;95045.19;6121188;28;109105;-66
2023/07/22 09:13:35;;;;;;;14.73;13.30;;;;;;;24.49;41.54;95047.28;6108273;28;110081;-66
2023/07/22 09:16:38;;;;;;;15.80;14.30;;;;;;;24.49;41.67;95042.72;6114441;28;109178;-68
2023/07/22 09:19:43;;;;;;;16.90;15.40;;;;;;;24.50;41.94;95044.28;6114445;28;109176;-67
2023/07/22 09:22:47;;;;;;;17.13;15.43;;;;;;;24.90;41.04;95045.91;6103450;28;109264;-66
2023/07/22 09:26:12;;;;;;;17.00;15.50;;;;;;;24.97;41.56;95032.78;6125384;28;109355;-66
2023/07/22 09:29:15;;;;;;;17.67;16.10;;;;;;;25.13;41.06;95039.13;6136724;28;109285;-67
2023/07/22 09:32:35;;;;;;;19.73;17.93;;;;;;;25.15;40.90;95033.44;6133091;28;109281;-67
2023/07/22 09:35:47;;;;;;;19.03;17.13;;;;;;;25.05;41.39;95035.41;6102384;28;109282;-66
2023/07/22 09:39:02;;;;;;;17.50;16.00;;;;;;;25.10;41.42;95031.75;6124199;28;109891;-66
2023/07/22 09:42:08;;;;;;;19.23;17.53;;;;;;;25.07;41.29;95024.38;6134735;28;109133;-66
2023/07/22 09:45:12;;;;;;;18.57;16.87;;;;;;;25.18;40.92;95022.06;6107736;28;109088;-68
2023/07/22 09:48:15;;;;;;;19.53;17.93;;;;;;;25.25;40.90;95020.47;6116465;28;110270;-67
2023/07/22 09:51:20;;;;;;;20.17;18.37;;;;;;;25.13;41.31;95016.91;6127881;28;110094;-67
2023/07/22 09:54:28;;;;;;;20.10;18.33;;;;;;;24.89;41.58;95012.19;6115527;28;109372;-67
2023/07/22 09:57:35;;;;;;;19.63;17.90;;;;;;;24.54;42.01;95022.28;6106119;28;109234;-67
2023/07/22 10:00:39;;;;;;;20.80;19.00;;;;;;;24.39;42.14;95012.88;6134479;28;109473;-67
2023/07/22 10:03:45;;;;;;;21.57;19.63;;;;;;;24.44;42.57;95008.13;6121656;28;109094;-71
2023/07/22 10:06:50;;;;;;;21.00;19.00;;;;;;;24.43;42.56;95011.13;6110378;28;110250;-67
2023/07/22 10:09:56;;;;;;;21.80;19.80;;;;;;;24.40;42.73;94999.19;6122050;28;110139;-67
2023/07/22 10:12:59;;;;;;;20.93;19.13;;;;;;;24.38;42.65;94998.72;6118009;28;109294;-67
2023/07/22 10:16:03;;;;;;;20.57;18.57;;;;;;;24.37;43.05;95004.41;6121435;28;109249;-67
2023/07/22 10:19:07;;;;;;;21.47;19.40;;;;;;;24.25;43.20;95009.63;6109918;28;109162;-67
2023/07/22 10:22:12;;;;;;;20.13;18.30;;;;;;;24.27;42.92;95012.78;6116039;28;109466;-68
2023/07/22 10:25:18;;;;;;;19.73;17.77;;;;;;;24.37;42.37;95013.22;6112010;28;109099;-67
2023/07/22 10:28:23;;;;;;;19.83;17.83;;;;;;;24.19;42.79;95001.78;6110478;28;109527;-67
2023/07/22 10:31:30;;;;;;;20.33;17.90;;;;;;;24.11;43.11;95002.59;6111895;28;110179;-67
2023/07/22 10:34:33;;;;;;;18.77;16.83;;;;;;;24.19;42.80;94992.97;6112625;28;109067;-67
2023/07/22 10:37:41;;;;;;;18.53;16.90;;;;;;;24.25;42.58;94994.38;6114052;28;109557;-67
2023/07/22 10:40:48;;;;;;;19.30;17.43;;;;;;;24.20;42.55;94991.88;6127024;28;109202;-67
2023/07/22 10:43:59;;;;;;;19.13;17.23;;;;;;;24.23;42.65;94987.78;6110033;28;109685;-67
2023/07/22 10:47:04;;;;;;;17.60;15.80;;;;;;;24.26;42.30;94981.78;6128178;28;108960;-67
2023/07/22 10:50:09;;;;;;;17.37;15.70;;;;;;;24.14;42.79;94974.44;6137325;28;108990;-67
2023/07/22 10:53:20;;;;;;;17.63;16.23;;;;;;;24.09;43.01;94979.97;6122098;28;110090;-67
2023/07/22 10:56:24;;;;;;;16.73;15.10;;;;;;;24.00;43.09;94973.84;6117850;28;109234;-69
2023/07/22 10:59:28;;;;;;;17.10;15.60;;;;;;;24.08;43.04;94973.84;6138077;28;109271;-67
2023/07/22 11:02:31;;;;;;;17.50;15.93;;;;;;;24.11;42.81;94964.38;6133039;28;109057;-67
2023/07/22 11:05:49;;;;;;;16.47;15.03;;;;;;;24.16;43.14;94964.97;6116101;28;108971;-62
2023/07/22 11:08:53;;;;;;;16.80;15.30;;;;;;;24.10;42.84;94949.44;6137134;28;109314;-62
2023/07/22 11:11:59;;;;;;;16.50;15.00;;;;;;;24.08;43.19;94930.28;6122650;28;109177;-62
2023/07/22 11:15:05;;;;;;;16.00;14.50;;;;;;;24.04;42.71;94956.09;6118747;28;109225;-62
2023/07/22 11:18:09;;;;;;;15.93;14.43;;;;;;;24.02;43.04;94968.97;6125047;28;109285;-62
2023/07/22 11:21:13;;;;;;;15.53;14.03;;;;;;;24.08;42.87;94957.00;6114687;28;109238;-62
2023/07/22 11:24:18;;;;;;;16.00;14.40;;;;;;;24.17;43.97;94950.50;6119980;28;109678;-62
2023/07/22 11:27:22;;;;;;;18.77;15.87;;;;;;;24.10;43.88;94958.25;6127948;28;112012;-62
2023/07/22 11:30:25;;;;;;;16.77;15.17;;;;;;;24.36;42.63;94963.50;6047675;28;109471;-71
2023/07/22 11:33:39;;;;;;;17.00;14.00;;;;;;;24.31;42.13;94952.97;6094802;28;110305;-71
2023/07/22 11:36:43;;;;;;;15.93;14.53;;;;;;;24.25;41.49;94943.56;6114818;28;109308;-70
2023/07/22 11:39:48;;;;;;;14.73;13.37;;;;;;;24.55;40.82;94944.38;6105262;28;109131;-71
2023/07/22 11:42:51;;;;;;;14.73;13.10;;;;;;;24.64;40.45;94931.69;6119950;28;109475;-70
2023/07/22 11:45:54;;;;;;;14.73;13.43;;;;;;;24.46;41.26;94923.00;6120416;28;109216;-70
2023/07/22 11:48:57;;;;;;;14.43;12.67;;;;;;;24.59;41.40;94925.75;6127073;28;109122;-70
2023/07/22 11:52:03;;;;;;;14.40;12.90;;;;;;;24.70;41.04;94925.09;6126070;28;109176;-71
2023/07/22 11:55:09;;;;;;;13.60;12.27;;;;;;;24.39;41.41;94922.72;6115152;28;109839;-70
2023/07/22 11:58:25;;;;;;;14.40;11.83;;;;;;;24.24;41.69;94922.50;6130300;28;109047;-71
2023/07/22 12:01:33;;;;;;;13.40;12.03;;;;;;;24.58;40.28;94916.97;6116801;28;109241;-71
2023/07/22 12:04:36;;;;;;;12.83;11.57;;;;;;;24.53;40.02;94930.53;6110754;28;109087;-71
2023/07/22 12:07:40;;;;;;;11.77;10.57;;;;;;;24.38;40.20;94921.16;6115131;28;110129;-72
2023/07/22 12:10:44;;;;;;;11.53;10.30;;;;;;;24.41;40.04;94919.72;6115088;28;109269;-71
2023/07/22 12:13:50;;;;;;;11.77;10.43;;;;;;;24.49;39.84;94908.97;6104579;28;109192;-71
2023/07/22 12:16:58;;;;;;;11.33;10.43;;;;;;;24.56;39.24;94913.03;6114720;28;109192;-68
2023/07/22 12:20:06;;;;;;;10.73;9.73;;;;;;;24.53;39.56;94908.31;6114538;28;109151;-68
2023/07/22 12:23:09;;;;;;;11.07;10.17;;;;;;;24.58;39.03;94903.56;6113742;28;109274;-68
2023/07/22 12:26:13;;;;;;;10.43;9.37;;;;;;;24.61;38.75;94910.16;6104156;28;109323;-69
2023/07/22 12:29:16;;;;;;;10.17;9.27;;;;;;;24.57;38.88;94904.69;6114577;28;109128;-67
2023/07/22 12:32:19;;;;;;;10.80;9.80;;;;;;;24.58;38.90;94900.13;6138067;28;110190;-67
2023/07/22 12:35:22;;;;;;;10.30;9.30;;;;;;;24.52;38.38;94902.19;6109950;28;111597;-67
2023/07/22 12:38:25;;;;;;;10.43;9.43;;;;;;;24.52;38.53;94885.34;6109060;28;109232;-68
2023/07/22 12:41:30;;;;;;;9.20;8.40;;;;;;;24.52;38.49;94893.38;6113920;28;109261;-69
2023/07/22 12:44:33;;;;;;;9.53;8.63;;;;;;;24.57;38.32;94898.56;6114280;28;110788;-69
2023/07/22 12:47:36;;;;;;;10.13;8.27;;;;;;;24.48;38.23;94891.34;6107644;28;109871;-68
2023/07/22 12:50:40;;;;;;;9.40;8.50;;;;;;;24.49;38.08;94886.78;6120034;28;109076;-68
2023/07/22 12:53:43;;;;;;;9.43;8.53;;;;;;;24.51;38.06;94879.22;6113648;28;109264;-67
2023/07/22 12:56:48;;;;;;;9.43;8.53;;;;;;;24.52;37.85;94880.00;6114010;28;109123;-68
2023/07/22 12:59:51;;;;;;;9.93;7.93;;;;;;;24.57;37.78;94880.59;6103046;28;109144;-68
2023/07/22 13:02:54;;;;;;;9.20;8.30;;;;;;;24.49;37.63;94870.72;6122802;28;109224;-69
2023/07/22 13:05:57;;;;;;;9.90;8.53;;;;;;;24.52;38.11;94862.06;6137160;28;110010;-69
2023/07/22 13:09:00;;;;;;;13.43;10.73;;;;;;;24.26;39.91;94862.22;6137347;28;108922;-67
2023/07/22 13:12:06;;;;;;;12.27;11.07;;;;;;;24.35;39.26;94864.84;6128471;28;109199;-68
2023/07/22 13:15:10;;;;;;;13.93;10.70;;;;;;;24.45;38.50;94864.47;6118424;28;110174;-67
2023/07/22 13:18:16;;;;;;;11.13;10.10;;;;;;;24.48;38.87;94853.13;6113367;28;109100;-69
2023/07/22 13:21:19;;;;;;;11.40;10.40;;;;;;;24.49;38.40;94847.44;6102059;28;109097;-68
2023/07/22 13:24:22;;;;;;;10.83;9.83;;;;;;;24.54;38.07;94851.06;6105908;28;109832;-70
2023/07/22 13:27:27;;;;;;;10.57;9.57;;;;;;;24.48;37.91;94842.41;6113290;28;109223;-71
2023/07/22 13:30:30;;;;;;;22.13;19.93;;;;;;;24.19;41.45;94848.56;6113013;28;109628;-62
2023/07/22 13:33:33;;;;;;;26.00;23.63;;;;;;;23.80;44.26;94850.47;6102810;28;111712;-62
2023/07/22 13:36:36;;;;;;;27.53;24.97;;;;;;;24.02;44.96;94846.00;6112302;28;109301;-62
2023/07/22 13:39:39;;;;;;;28.10;25.57;;;;;;;24.02;44.97;94844.09;6113629;28;110260;-62
2023/07/22 13:42:44;;;;;;;29.00;26.40;;;;;;;24.13;43.99;94841.84;6135335;28;109234;-62
2023/07/22 13:45:47;;;;;;;28.10;25.53;;;;;;;24.25;43.49;94839.28;6113691;28;109250;-62
2023/07/22 13:48:50;;;;;;;27.87;25.20;;;;;;;24.23;42.95;94836.16;6113022;28;108959;-62
2023/07/22 13:51:53;;;;;;;27.73;25.23;;;;;;;24.30;42.88;94831.06;6117698;28;109124;-61
2023/07/22 13:54:56;;;;;;;28.70;25.90;;;;;;;24.25;42.87;94823.22;6106639;28;108886;-62
2023/07/22 13:58:01;;;;;;;26.63;24.27;;;;;;;24.17;42.53;94816.03;6107073;28;109559;-63
2023/07/22 14:01:04;;;;;;;26.47;24.07;;;;;;;24.05;42.86;94835.47;6110782;28;109100;-62
2023/07/22 14:04:07;;;;;;;25.30;22.90;;;;;;;24.11;42.63;94817.34;6120087;28;109091;-62
2023/07/22 14:07:10;;;;;;;23.70;21.43;;;;;;;24.00;42.61;94810.78;6111419;28;111527;-64